Time;durP1;ratioP1;P1;durP2;ratioP2;P2;SDS_P1;SDS_P2;PMS_P1;PMS_P2;Temp;Humidity;BMP_temperature;BMP_pressure;BME280_temperature;BME280_humidity;BME280_pressure;Samples;Min_cycle;Max_cycle;Signal;HPM_P1;HPM_P2
2023/05/13 00:00:42;;;;;;;9.20;7.80;;;;;;;;;;5015893;28;20446;-68
2023/05/13 00:03:09;;;;;;;10.00;9.00;;;;;;;;;;5015242;28;20443;-67
2023/05/13 00:05:36;;;;;;;14.17;9.20;;;;;;;;;;5015598;28;21055;-67
2023/05/13 00:08:06;;;;;;;9.47;8.47;;;;;;;;;;5015586;28;20466;-67
2023/05/13 00:10:33;;;;;;;9.40;8.60;;;;;;;;;;5015233;28;20485;-67
2023/05/13 00:13:00;;;;;;;9.83;8.83;;;;;;;;;;5015833;28;20476;-68
2023/05/13 00:15:28;;;;;;;9.63;7.67;;;;;;;;;;5015656;28;20448;-67
2023/05/13 00:17:56;;;;;;;10.63;8.70;;;;;;;;;;5015064;28;20924;-67
2023/05/13 00:20:23;;;;;;;8.83;8.03;;;;;;;;;;5015389;28;20508;-68
2023/05/13 00:22:50;;;;;;;8.57;7.80;;;;;;;;;;5014975;28;20453;-68
2023/05/13 00:25:19;;;;;;;8.90;8.00;;;;;;;;;;5015256;28;20453;-68
2023/05/13 00:27:46;;;;;;;8.73;7.83;;;;;;;;;;5014914;28;20481;-68
2023/05/13 00:30:13;;;;;;;10.30;8.40;;;;;;;;;;5015400;28;20457;-68
2023/05/13 00:32:40;;;;;;;8.70;7.90;;;;;;;;;;5015139;28;20482;-68
2023/05/13 00:35:08;;;;;;;11.87;8.67;;;;;;;;;;5015949;28;20450;-68
2023/05/13 00:37:35;;;;;;;9.53;8.00;;;;;;;;;;5014676;28;20477;-68
2023/05/13 00:40:03;;;;;;;8.57;7.77;;;;;;;;;;5015058;28;20453;-67
2023/05/13 00:42:31;;;;;;;11.27;9.00;;;;;;;;;;5014900;28;20457;-68
2023/05/13 00:44:58;;;;;;;9.93;8.77;;;;;;;;;;5014932;28;20442;-67
2023/05/13 00:47:25;;;;;;;10.13;9.17;;;;;;;;;;5014912;28;20482;-68
2023/05/13 00:49:53;;;;;;;10.40;8.33;;;;;;;;;;5014893;28;20438;-68
2023/05/13 00:52:20;;;;;;;10.80;8.87;;;;;;;;;;5015256;28;20450;-69
2023/05/13 00:54:47;;;;;;;9.43;8.53;;;;;;;;;;5014802;28;20469;-67
2023/05/13 00:57:14;;;;;;;8.97;8.07;;;;;;;;;;5015217;28;20448;-68
2023/05/13 00:59:43;;;;;;;9.40;8.50;;;;;;;;;;5014600;28;20807;-68
2023/05/13 01:02:25;;;;;;;8.90;7.87;;;;;;;;;;5014626;28;20564;-68
2023/05/13 01:04:58;;;;;;;9.33;8.43;;;;;;;;;;5014789;28;20515;-68
2023/05/13 01:07:27;;;;;;;10.63;8.73;;;;;;;;;;5014109;28;20492;-68
2023/05/13 01:10:01;;;;;;;9.50;8.20;;;;;;;;;;5014086;28;20450;-68
2023/05/13 01:12:31;;;;;;;9.67;7.73;;;;;;;;;;5014715;28;20437;-68
2023/05/13 01:15:06;;;;;;;9.50;8.63;;;;;;;;;;5013964;28;20437;-68
2023/05/13 01:17:36;;;;;;;9.43;8.53;;;;;;;;;;5014244;28;20422;-68
2023/05/13 01:20:04;;;;;;;9.07;8.30;;;;;;;;;;5014389;28;20808;-68
2023/05/13 01:22:33;;;;;;;17.60;10.37;;;;;;;;;;5014004;28;20501;-68
2023/05/13 01:25:00;;;;;;;11.47;10.17;;;;;;;;;;5014193;28;20465;-68
2023/05/13 01:27:28;;;;;;;10.27;9.53;;;;;;;;;;5014152;28;20842;-68
2023/05/13 01:29:55;;;;;;;10.60;9.60;;;;;;;;;;5014051;28;20444;-68
2023/05/13 01:32:23;;;;;;;10.07;9.20;;;;;;;;;;5014127;28;20464;-68
2023/05/13 01:34:51;;;;;;;10.27;9.17;;;;;;;;;;5013758;28;20609;-68
2023/05/13 01:37:19;;;;;;;11.27;10.27;;;;;;;;;;5013792;28;20477;-68
2023/05/13 01:39:48;;;;;;;19.13;10.40;;;;;;;;;;5013708;28;20435;-68
2023/05/13 01:42:15;;;;;;;10.20;9.13;;;;;;;;;;5013644;28;20461;-68
2023/05/13 01:44:42;;;;;;;11.80;10.70;;;;;;;;;;5013865;28;20508;-68
2023/05/13 01:47:09;;;;;;;15.03;10.30;;;;;;;;;;5013939;28;20481;-67
2023/05/13 01:49:37;;;;;;;10.80;9.90;;;;;;;;;;5013885;28;20459;-68
2023/05/13 01:52:04;;;;;;;13.30;10.53;;;;;;;;;;5013892;28;20445;-68
2023/05/13 01:54:31;;;;;;;13.73;10.27;;;;;;;;;;5013762;28;20449;-68
2023/05/13 01:57:00;;;;;;;11.87;10.77;;;;;;;;;;5013877;28;20453;-67
2023/05/13 01:59:27;;;;;;;13.43;9.80;;;;;;;;;;5013407;28;20444;-68
2023/05/13 02:01:54;;;;;;;14.83;10.93;;;;;;;;;;5013484;28;20949;-68
2023/05/13 02:04:21;;;;;;;11.80;10.60;;;;;;;;;;5013662;28;20451;-69
2023/05/13 02:06:49;;;;;;;15.60;10.50;;;;;;;;;;5013622;28;20500;-68
2023/05/13 02:09:16;;;;;;;11.27;10.07;;;;;;;;;;5013257;28;20455;-68
2023/05/13 02:11:43;;;;;;;14.50;9.53;;;;;;;;;;5013595;28;20449;-68
2023/05/13 02:14:12;;;;;;;11.87;10.70;;;;;;;;;;5013236;28;20544;-68
2023/05/13 02:16:39;;;;;;;11.37;10.07;;;;;;;;;;5013355;28;20941;-68
2023/05/13 02:19:06;;;;;;;12.23;10.40;;;;;;;;;;5013210;28;20965;-68
2023/05/13 02:21:33;;;;;;;12.37;10.67;;;;;;;;;;5013559;28;20442;-68
2023/05/13 02:24:00;;;;;;;11.43;10.40;;;;;;;;;;5013071;28;20448;-68
2023/05/13 02:26:28;;;;;;;11.90;10.70;;;;;;;;;;5015705;28;20829;-68
2023/05/13 02:28:56;;;;;;;16.43;11.10;;;;;;;;;;5017623;28;20439;-68
2023/05/13 02:31:25;;;;;;;11.60;10.27;;;;;;;;;;5017540;28;20444;-68
2023/05/13 02:33:53;;;;;;;11.30;10.30;;;;;;;;;;5016996;28;20938;-69
2023/05/13 02:36:20;;;;;;;12.20;10.90;;;;;;;;;;5017390;28;20449;-68
2023/05/13 02:38:47;;;;;;;11.37;10.43;;;;;;;;;;5017871;28;20488;-69
2023/05/13 02:41:15;;;;;;;11.83;10.73;;;;;;;;;;5017267;28;20450;-68
2023/05/13 02:43:42;;;;;;;12.10;11.10;;;;;;;;;;5016907;28;20452;-69
2023/05/13 02:46:09;;;;;;;11.50;10.40;;;;;;;;;;5016765;28;20522;-68
2023/05/13 02:48:37;;;;;;;12.83;11.63;;;;;;;;;;5016810;28;20448;-68
2023/05/13 02:51:05;;;;;;;13.10;11.63;;;;;;;;;;5016699;28;20938;-68
2023/05/13 02:53:32;;;;;;;12.30;11.03;;;;;;;;;;5016795;28;20952;-68
2023/05/13 02:55:59;;;;;;;12.20;11.00;;;;;;;;;;5016619;28;20935;-68
2023/05/13 02:58:26;;;;;;;13.07;11.67;;;;;;;;;;5016644;28;20964;-68
2023/05/13 03:00:53;;;;;;;11.83;10.77;;;;;;;;;;5016456;28;20941;-68
2023/05/13 03:03:20;;;;;;;12.57;11.27;;;;;;;;;;5016499;28;20447;-68
2023/05/13 03:05:49;;;;;;;12.57;11.47;;;;;;;;;;5016372;28;20443;-69
2023/05/13 03:08:16;;;;;;;15.90;11.80;;;;;;;;;;5016488;28;20493;-68
2023/05/13 03:10:43;;;;;;;11.50;10.50;;;;;;;;;;5016717;28;20443;-68
2023/05/13 03:13:11;;;;;;;13.97;11.77;;;;;;;;;;5016694;28;20458;-69
2023/05/13 03:15:38;;;;;;;12.63;11.43;;;;;;;;;;5016451;28;20444;-68
2023/05/13 03:18:05;;;;;;;12.13;11.03;;;;;;;;;;5016713;28;20443;-69
2023/05/13 03:20:32;;;;;;;15.90;12.23;;;;;;;;;;5016434;28;20444;-70
2023/05/13 03:23:01;;;;;;;11.73;10.63;;;;;;;;;;5013224;28;20449;-70
2023/05/13 03:25:28;;;;;;;15.03;13.60;;;;;;;;;;4996524;28;20996;-70
2023/05/13 03:27:55;;;;;;;13.17;11.87;;;;;;;;;;4996419;28;20476;-70
2023/05/13 03:30:22;;;;;;;16.37;12.10;;;;;;;;;;4996415;28;20788;-70
2023/05/13 03:32:49;;;;;;;13.20;11.97;;;;;;;;;;4995938;28;20957;-70
2023/05/13 03:35:17;;;;;;;16.30;11.37;;;;;;;;;;4996439;28;20445;-70
2023/05/13 03:37:44;;;;;;;14.80;11.70;;;;;;;;;;4995867;28;20487;-70
2023/05/13 03:40:13;;;;;;;14.27;12.03;;;;;;;;;;4996239;28;20444;-70
2023/05/13 03:42:40;;;;;;;14.40;13.00;;;;;;;;;;4996417;28;20451;-70
2023/05/13 03:45:08;;;;;;;13.30;11.90;;;;;;;;;;4996269;28;20454;-70
2023/05/13 03:47:37;;;;;;;12.77;11.50;;;;;;;;;;4996006;28;20479;-70
2023/05/13 03:50:05;;;;;;;17.30;13.03;;;;;;;;;;4996208;28;20541;-69
2023/05/13 03:52:32;;;;;;;19.87;12.63;;;;;;;;;;4996376;28;20453;-70
2023/05/13 03:54:59;;;;;;;13.00;11.70;;;;;;;;;;4995670;28;20527;-70
2023/05/13 03:57:28;;;;;;;16.03;13.07;;;;;;;;;;4995802;28;20454;-70
2023/05/13 03:59:55;;;;;;;13.17;11.80;;;;;;;;;;4995898;28;20475;-70
2023/05/13 04:02:22;;;;;;;13.00;11.67;;;;;;;;;;4996138;28;20445;-70
2023/05/13 04:04:50;;;;;;;14.27;12.80;;;;;;;;;;4995939;28;20478;-70
2023/05/13 04:07:17;;;;;;;13.70;12.50;;;;;;;;;;4995747;28;20477;-69
2023/05/13 04:09:44;;;;;;;13.47;12.17;;;;;;;;;;4995963;28;20535;-70
2023/05/13 04:12:11;;;;;;;13.03;11.90;;;;;;;;;;4995823;28;20453;-70
2023/05/13 04:14:40;;;;;;;13.17;12.07;;;;;;;;;;4996040;28;20838;-69
2023/05/13 04:17:07;;;;;;;13.70;12.40;;;;;;;;;;4995691;28;20460;-70
2023/05/13 04:19:34;;;;;;;13.47;11.80;;;;;;;;;;4995612;28;20452;-70
2023/05/13 04:22:01;;;;;;;12.87;11.70;;;;;;;;;;4995309;28;20990;-69
2023/05/13 04:24:28;;;;;;;13.90;12.67;;;;;;;;;;4995269;28;20942;-69
2023/05/13 04:26:56;;;;;;;12.27;11.17;;;;;;;;;;4995061;28;21002;-69
2023/05/13 04:29:23;;;;;;;12.73;11.57;;;;;;;;;;4995668;28;20937;-69
2023/05/13 04:31:51;;;;;;;13.87;12.47;;;;;;;;;;4995477;28;20524;-70
2023/05/13 04:34:18;;;;;;;12.90;11.67;;;;;;;;;;4995850;28;20447;-70
2023/05/13 04:36:47;;;;;;;12.90;11.70;;;;;;;;;;4994874;28;20451;-71
2023/05/13 04:39:14;;;;;;;14.43;12.83;;;;;;;;;;4995629;28;20441;-69
2023/05/13 04:41:42;;;;;;;17.53;12.77;;;;;;;;;;4995278;28;20540;-69
2023/05/13 04:44:09;;;;;;;14.30;13.00;;;;;;;;;;4995265;28;20481;-72
2023/05/13 04:46:39;;;;;;;15.40;11.40;;;;;;;;;;4994836;28;20960;-69
2023/05/13 04:49:07;;;;;;;16.10;11.20;;;;;;;;;;4994266;28;20564;-68
2023/05/13 04:51:34;;;;;;;13.30;12.00;;;;;;;;;;4995024;28;20452;-69
2023/05/13 04:54:02;;;;;;;12.00;10.70;;;;;;;;;;4994767;28;20486;-68
2023/05/13 04:56:29;;;;;;;12.17;10.93;;;;;;;;;;4994820;28;20453;-68
2023/05/13 04:58:56;;;;;;;12.63;11.37;;;;;;;;;;4994912;28;20554;-68
2023/05/13 05:01:23;;;;;;;16.13;12.20;;;;;;;;;;4994921;28;20452;-69
2023/05/13 05:03:50;;;;;;;13.03;11.83;;;;;;;;;;4995091;28;20448;-68
2023/05/13 05:06:20;;;;;;;14.30;11.00;;;;;;;;;;4994644;28;20453;-68
2023/05/13 05:08:47;;;;;;;12.87;11.57;;;;;;;;;;4994721;28;20488;-70
2023/05/13 05:11:15;;;;;;;11.10;10.10;;;;;;;;;;4994471;28;20442;-69
2023/05/13 05:13:42;;;;;;;11.60;10.60;;;;;;;;;;4994432;28;20460;-69
2023/05/13 05:16:09;;;;;;;11.97;10.83;;;;;;;;;;4994309;28;20451;-69
2023/05/13 05:18:36;;;;;;;14.50;11.30;;;;;;;;;;4994859;28;20543;-69
2023/05/13 05:21:03;;;;;;;10.83;9.93;;;;;;;;;;4994293;28;20449;-71
2023/05/13 05:23:32;;;;;;;13.13;11.60;;;;;;;;;;4994478;28;20444;-70
2023/05/13 05:25:59;;;;;;;12.20;10.20;;;;;;;;;;4994241;28;20462;-70
2023/05/13 05:28:26;;;;;;;15.60;11.63;;;;;;;;;;4994358;28;20879;-69
2023/05/13 05:30:54;;;;;;;11.97;10.97;;;;;;;;;;4994396;28;20441;-69
2023/05/13 05:33:21;;;;;;;11.80;10.60;;;;;;;;;;4994370;28;20466;-69
2023/05/13 05:35:48;;;;;;;11.00;9.83;;;;;;;;;;4994470;28;20473;-68
2023/05/13 05:38:16;;;;;;;11.77;10.27;;;;;;;;;;4993689;28;20993;-68
2023/05/13 05:40:45;;;;;;;11.30;10.20;;;;;;;;;;4994108;28;20452;-68
2023/05/13 05:43:12;;;;;;;11.20;10.20;;;;;;;;;;4993948;28;21039;-68
2023/05/13 05:45:40;;;;;;;11.93;10.50;;;;;;;;;;4994481;28;20807;-68
2023/05/13 05:48:07;;;;;;;12.97;11.40;;;;;;;;;;4994117;28;20486;-68
2023/05/13 05:50:35;;;;;;;12.00;10.73;;;;;;;;;;4994182;28;20446;-68
2023/05/13 05:53:02;;;;;;;12.63;11.10;;;;;;;;;;4993905;28;20538;-69
2023/05/13 05:55:30;;;;;;;12.57;10.60;;;;;;;;;;4994238;28;20451;-68
2023/05/13 05:58:02;;;;;;;11.17;10.17;;;;;;;;;;4994167;28;20550;-68
2023/05/13 06:00:29;;;;;;;13.70;11.57;;;;;;;;;;4993508;28;20432;-68
2023/05/13 06:02:57;;;;;;;11.90;10.70;;;;;;;;;;4993538;28;20453;-68
2023/05/13 06:05:24;;;;;;;13.93;10.67;;;;;;;;;;4993660;28;20446;-68
2023/05/13 06:07:51;;;;;;;11.80;10.70;;;;;;;;;;4993946;28;20497;-68
2023/05/13 06:10:18;;;;;;;16.03;11.87;;;;;;;;;;4994283;28;20453;-69
2023/05/13 06:12:45;;;;;;;13.50;10.77;;;;;;;;;;4993622;28;20458;-71
2023/05/13 06:15:14;;;;;;;12.83;11.50;;;;;;;;;;4993721;28;20462;-72
2023/05/13 06:17:41;;;;;;;10.93;10.03;;;;;;;;;;4994052;28;20513;-69
2023/05/13 06:20:08;;;;;;;12.10;10.83;;;;;;;;;;4993710;28;20455;-69
2023/05/13 06:22:36;;;;;;;11.63;10.37;;;;;;;;;;4993819;28;20449;-69
2023/05/13 06:25:03;;;;;;;12.93;11.63;;;;;;;;;;4993492;28;20461;-69
2023/05/13 06:27:32;;;;;;;11.33;10.33;;;;;;;;;;4993683;28;20443;-73
2023/05/13 06:29:59;;;;;;;11.83;10.67;;;;;;;;;;4993599;28;20458;-69
2023/05/13 06:32:28;;;;;;;10.80;9.80;;;;;;;;;;4993686;28;20538;-68
2023/05/13 06:34:55;;;;;;;11.13;9.93;;;;;;;;;;4993312;28;20458;-69
2023/05/13 06:37:22;;;;;;;10.40;9.50;;;;;;;;;;4993234;28;20490;-68
2023/05/13 06:39:49;;;;;;;12.63;10.43;;;;;;;;;;4993283;28;20440;-69
2023/05/13 06:42:17;;;;;;;10.90;9.80;;;;;;;;;;4993706;28;20823;-68
2023/05/13 06:44:44;;;;;;;11.53;9.20;;;;;;;;;;4993592;28;20468;-69
2023/05/13 06:47:14;;;;;;;12.23;9.40;;;;;;;;;;4994120;28;20446;-69
2023/05/13 06:49:43;;;;;;;10.03;9.03;;;;;;;;;;4993899;28;20520;-69
2023/05/13 06:52:10;;;;;;;11.40;9.90;;;;;;;;;;4993451;28;20448;-69
2023/05/13 06:54:38;;;;;;;11.83;9.93;;;;;;;;;;4993618;28;20567;-68
2023/05/13 06:57:06;;;;;;;9.70;8.80;;;;;;;;;;4993146;28;21093;-68
2023/05/13 06:59:33;;;;;;;13.67;10.17;;;;;;;;;;4993453;28;20486;-69
2023/05/13 07:02:00;;;;;;;14.63;9.60;;;;;;;;;;4993410;28;20495;-68
2023/05/13 07:04:29;;;;;;;10.03;9.07;;;;;;;;;;4993457;28;20539;-68
2023/05/13 07:06:57;;;;;;;18.13;9.27;;;;;;;;;;4993235;28;20949;-68
2023/05/13 07:09:24;;;;;;;9.20;8.43;;;;;;;;;;4993310;28;20483;-68
2023/05/13 07:11:52;;;;;;;10.03;8.70;;;;;;;;;;4994179;28;20463;-68
2023/05/13 07:14:20;;;;;;;9.67;8.63;;;;;;;;;;4996583;28;20533;-68
2023/05/13 07:16:47;;;;;;;8.20;7.60;;;;;;;;;;4996857;28;20806;-68
2023/05/13 07:19:14;;;;;;;13.47;9.50;;;;;;;;;;4996752;28;20792;-68
2023/05/13 07:21:41;;;;;;;8.10;7.40;;;;;;;;;;4996395;28;20465;-68
2023/05/13 07:24:10;;;;;;;10.17;8.47;;;;;;;;;;4996629;28;20542;-68
2023/05/13 07:26:37;;;;;;;9.23;8.17;;;;;;;;;;4996472;28;20482;-68
2023/05/13 07:29:05;;;;;;;10.33;8.10;;;;;;;;;;4996250;28;21008;-69
2023/05/13 07:31:32;;;;;;;9.43;8.53;;;;;;;;;;4996808;28;20937;-68
2023/05/13 07:33:59;;;;;;;9.73;7.70;;;;;;;;;;4996513;28;20810;-69
2023/05/13 07:36:26;;;;;;;7.97;7.33;;;;;;;;;;4997178;28;20450;-68
2023/05/13 07:38:53;;;;;;;10.80;7.73;;;;;;;;;;5016133;28;20982;-69
2023/05/13 07:41:22;;;;;;;7.53;6.70;;;;;;;;;;5015985;28;20443;-70
2023/05/13 07:43:49;;;;;;;7.13;6.43;;;;;;;;;;5016243;28;20530;-68
2023/05/13 07:46:16;;;;;;;8.10;7.17;;;;;;;;;;5015706;28;20451;-68
2023/05/13 07:48:44;;;;;;;11.50;8.50;;;;;;;;;;5015356;28;20476;-68
2023/05/13 07:51:11;;;;;;;7.53;6.80;;;;;;;;;;5016031;28;20450;-69
2023/05/13 07:53:38;;;;;;;11.67;9.37;;;;;;;;;;5015636;28;20443;-68
2023/05/13 07:56:06;;;;;;;17.40;12.50;;;;;;;;;;5016123;28;20446;-69
2023/05/13 07:58:35;;;;;;;8.73;7.23;;;;;;;;;;5015667;28;20453;-68
2023/05/13 08:01:02;;;;;;;9.10;6.70;;;;;;;;;;5015487;28;20451;-68
2023/05/13 08:03:30;;;;;;;9.23;8.33;;;;;;;;;;5015291;28;20452;-69
2023/05/13 08:05:57;;;;;;;7.83;7.03;;;;;;;;;;5015347;28;20930;-69
2023/05/13 08:08:24;;;;;;;9.57;6.80;;;;;;;;;;5015711;28;20831;-69
2023/05/13 08:10:51;;;;;;;8.60;7.27;;;;;;;;;;5015176;28;20468;-69
2023/05/13 08:13:18;;;;;;;7.60;6.93;;;;;;;;;;5015697;28;20453;-71
2023/05/13 08:15:49;;;;;;;10.13;6.80;;;;;;;;;;5015429;28;20539;-69
2023/05/13 08:18:16;;;;;;;9.47;6.30;;;;;;;;;;5015746;28;20438;-68
2023/05/13 08:20:43;;;;;;;7.77;7.00;;;;;;;;;;5014726;28;20460;-69
2023/05/13 08:23:10;;;;;;;12.20;9.93;;;;;;;;;;5014025;28;20449;-69
2023/05/13 08:25:37;;;;;;;10.20;7.73;;;;;;;;;;5014695;28;20451;-68
2023/05/13 08:28:05;;;;;;;8.07;6.37;;;;;;;;;;5014842;28;20451;-68
2023/05/13 08:30:32;;;;;;;6.67;6.03;;;;;;;;;;5014788;28;20452;-68
2023/05/13 08:33:00;;;;;;;8.60;6.70;;;;;;;;;;5014909;28;20456;-68
2023/05/13 08:35:27;;;;;;;7.07;6.43;;;;;;;;;;5014983;28;20798;-68
2023/05/13 08:37:55;;;;;;;11.57;7.80;;;;;;;;;;5014640;28;20478;-68
2023/05/13 08:40:22;;;;;;;7.47;6.70;;;;;;;;;;5014696;28;20469;-69
2023/05/13 08:42:51;;;;;;;8.00;5.80;;;;;;;;;;5014794;28;20453;-70
2023/05/13 08:45:22;;;;;;;13.80;10.93;;;;;;;;;;5014735;28;20438;-68
2023/05/13 08:47:51;;;;;;;8.43;6.10;;;;;;;;;;5014808;28;20435;-68
2023/05/13 08:50:20;;;;;;;6.60;6.00;;;;;;;;;;5014609;28;20486;-68
2023/05/13 08:52:47;;;;;;;7.00;6.30;;;;;;;;;;5014783;28;20489;-68
2023/05/13 08:55:15;;;;;;;9.33;6.30;;;;;;;;;;5013715;28;20449;-68
2023/05/13 08:57:42;;;;;;;8.03;6.13;;;;;;;;;;5014431;28;20806;-68
2023/05/13 09:00:10;;;;;;;7.03;6.40;;;;;;;;;;5014101;28;20451;-68
2023/05/13 09:02:37;;;;;;;6.37;5.77;;;;;;;;;;5014221;28;20461;-68
2023/05/13 09:05:06;;;;;;;14.03;6.10;;;;;;;;;;5014573;28;20447;-68
2023/05/13 09:07:35;;;;;;;5.93;5.30;;;;;;;;;;5014031;28;20466;-68
2023/05/13 09:10:03;;;;;;;6.93;5.30;;;;;;;;;;5013913;28;20988;-68
2023/05/13 09:12:44;;;;;;;6.70;4.97;;;;;;;;;;5014135;28;20449;-68
2023/05/13 09:15:12;;;;;;;7.50;4.80;;;;;;;;;;5014281;28;20509;-68
2023/05/13 09:17:41;;;;;;;9.37;5.40;;;;;;;;;;5014065;28;20442;-69
2023/05/13 09:20:09;;;;;;;16.90;5.63;;;;;;;;;;5014136;28;20809;-68
2023/05/13 09:22:40;;;;;;;7.60;5.67;;;;;;;;;;5014339;28;20449;-68
2023/05/13 09:25:08;;;;;;;6.93;5.20;;;;;;;;;;5014007;28;20438;-68
2023/05/13 09:27:39;;;;;;;7.93;5.43;;;;;;;;;;5013998;28;20438;-68
2023/05/13 09:30:07;;;;;;;8.70;6.17;;;;;;;;;;5013620;28;20470;-67
2023/05/13 09:32:34;;;;;;;9.53;5.80;;;;;;;;;;5014017;28;20802;-68
2023/05/13 09:35:09;;;;;;;7.23;5.60;;;;;;;;;;5013749;28;20446;-70
2023/05/13 09:37:38;;;;;;;5.27;4.80;;;;;;;;;;5013456;28;20540;-68
2023/05/13 09:40:06;;;;;;;10.90;5.67;;;;;;;;;;5013448;28;20443;-68
2023/05/13 09:42:33;;;;;;;5.80;4.87;;;;;;;;;;5013927;28;20449;-68
2023/05/13 09:45:05;;;;;;;6.03;5.10;;;;;;;;;;5013906;28;20450;-68
2023/05/13 09:47:33;;;;;;;5.27;4.80;;;;;;;;;;5013516;28;20513;-68
2023/05/13 09:50:02;;;;;;;8.70;5.37;;;;;;;;;;5013327;28;20483;-68
2023/05/13 09:52:30;;;;;;;13.30;5.10;;;;;;;;;;5014183;28;20517;-68
2023/05/13 09:54:58;;;;;;;9.40;5.53;;;;;;;;;;5013798;28;20461;-68
2023/05/13 09:57:28;;;;;;;14.23;5.53;;;;;;;;;;5013335;28;20817;-68
2023/05/13 09:59:58;;;;;;;4.57;4.03;;;;;;;;;;5013233;28;20936;-68
2023/05/13 10:02:25;;;;;;;7.00;5.20;;;;;;;;;;5013908;28;20917;-68
2023/05/13 10:04:53;;;;;;;8.57;4.80;;;;;;;;;;5013680;28;20457;-68
2023/05/13 10:07:23;;;;;;;5.83;4.40;;;;;;;;;;5013694;28;20525;-68
2023/05/13 10:09:51;;;;;;;9.33;4.70;;;;;;;;;;5013327;28;20510;-68
2023/05/13 10:12:20;;;;;;;8.73;5.30;;;;;;;;;;5013386;28;20447;-67
2023/05/13 10:14:48;;;;;;;5.83;4.40;;;;;;;;;;5013653;28;20448;-68
2023/05/13 10:17:16;;;;;;;4.83;4.13;;;;;;;;;;5012922;28;20435;-68
2023/05/13 10:19:43;;;;;;;7.43;4.27;;;;;;;;;;5013372;28;20446;-68
2023/05/13 10:22:11;;;;;;;6.37;4.80;;;;;;;;;;5013385;28;20537;-68
2023/05/13 10:24:39;;;;;;;13.70;5.10;;;;;;;;;;5013099;28;20443;-68
2023/05/13 10:27:07;;;;;;;8.53;6.77;;;;;;;;;;5013114;28;20438;-68
2023/05/13 10:29:36;;;;;;;7.80;4.90;;;;;;;;;;5013207;28;20486;-68
2023/05/13 10:32:04;;;;;;;5.87;5.07;;;;;;;;;;5013348;28;20450;-68
2023/05/13 10:34:33;;;;;;;8.20;4.73;;;;;;;;;;5013161;28;20925;-68
2023/05/13 10:37:08;;;;;;;9.33;4.63;;;;;;;;;;5012430;28;21118;-68
2023/05/13 10:39:48;;;;;;;7.93;7.10;;;;;;;;;;5012853;28;20438;-68
2023/05/13 10:42:24;;;;;;;11.03;6.60;;;;;;;;;;5013187;28;20427;-68
2023/05/13 10:44:55;;;;;;;8.90;5.83;;;;;;;;;;5013396;28;20428;-68
2023/05/13 10:47:22;;;;;;;6.67;4.37;;;;;;;;;;5014806;28;20427;-68
2023/05/13 10:49:51;;;;;;;8.63;4.50;;;;;;;;;;5017111;28;20480;-68
2023/05/13 10:52:18;;;;;;;7.80;5.03;;;;;;;;;;5016858;28;20451;-68
2023/05/13 10:54:57;;;;;;;6.13;5.53;;;;;;;;;;5016822;28;20447;-68
2023/05/13 10:57:28;;;;;;;5.10;4.70;;;;;;;;;;5016103;28;20472;-67
2023/05/13 11:00:17;;;;;;;11.57;5.40;;;;;;;;;;5016911;28;20451;-68
2023/05/13 11:02:46;;;;;;;5.83;5.30;;;;;;;;;;5010903;28;20538;-67
2023/05/13 11:05:20;;;;;;;6.73;4.73;;;;;;;;;;5016857;28;20443;-68
2023/05/13 11:07:55;;;;;;;8.20;4.90;;;;;;;;;;5016324;28;20443;-68
2023/05/13 11:10:30;;;;;;;6.67;5.17;;;;;;;;;;5016865;28;20472;-67
2023/05/13 11:13:08;;;;;;;6.33;4.97;;;;;;;;;;5016365;28;20464;-68
2023/05/13 11:15:44;;;;;;;5.70;5.20;;;;;;;;;;5017021;28;20447;-67
2023/05/13 11:18:13;;;;;;;6.50;5.80;;;;;;;;;;5016173;28;20967;-67
2023/05/13 11:20:40;;;;;;;5.93;5.20;;;;;;;;;;5016474;28;20786;-67
2023/05/13 11:23:08;;;;;;;7.23;5.53;;;;;;;;;;5016412;28;20450;-70
2023/05/13 11:25:35;;;;;;;7.53;6.50;;;;;;;;;;5016100;28;20814;-69
2023/05/13 11:28:03;;;;;;;15.40;12.43;;;;;;;;;;5016322;28;20447;-70
2023/05/13 11:30:31;;;;;;;8.20;6.90;;;;;;;;;;5015955;28;20992;-69
2023/05/13 11:32:58;;;;;;;6.60;6.00;;;;;;;;;;5016152;28;20443;-70
2023/05/13 11:35:27;;;;;;;11.53;5.00;;;;;;;;;;5016234;28;20446;-69
2023/05/13 11:37:55;;;;;;;6.27;5.67;;;;;;;;;;5016262;28;20471;-69
2023/05/13 11:40:23;;;;;;;12.97;5.80;;;;;;;;;;5015847;28;20448;-69
2023/05/13 11:42:50;;;;;;;7.23;5.23;;;;;;;;;;5016231;28;20451;-69
2023/05/13 11:45:18;;;;;;;5.27;4.80;;;;;;;;;;5016001;28;20449;-69
2023/05/13 11:47:45;;;;;;;6.43;5.30;;;;;;;;;;5015894;28;20473;-69
2023/05/13 11:50:19;;;;;;;6.27;5.00;;;;;;;;;;5014721;28;20467;-69
2023/05/13 11:52:51;;;;;;;5.93;5.43;;;;;;;;;;5015488;28;20455;-69
2023/05/13 11:55:25;;;;;;;8.87;7.40;;;;;;;;;;5015884;28;20506;-70
2023/05/13 11:57:53;;;;;;;6.50;5.90;;;;;;;;;;5015070;28;20427;-70
2023/05/13 12:00:25;;;;;;;6.63;5.53;;;;;;;;;;5015422;28;20928;-69
2023/05/13 12:02:59;;;;;;;8.83;4.60;;;;;;;;;;5015450;28;20910;-69
2023/05/13 12:05:26;;;;;;;6.20;5.60;;;;;;;;;;5015567;28;20435;-69
2023/05/13 12:07:58;;;;;;;6.23;4.83;;;;;;;;;;5015571;28;20817;-68
2023/05/13 12:10:26;;;;;;;6.03;5.40;;;;;;;;;;5015206;28;20468;-67
2023/05/13 12:12:54;;;;;;;4.60;4.20;;;;;;;;;;5014958;28;20550;-68
2023/05/13 12:15:21;;;;;;;8.27;4.77;;;;;;;;;;5015284;28;20452;-68
2023/05/13 12:17:49;;;;;;;5.73;4.03;;;;;;;;;;5015279;28;20444;-67
2023/05/13 12:20:17;;;;;;;8.77;5.90;;;;;;;;;;5015126;28;20452;-67
2023/05/13 12:22:55;;;;;;;6.40;5.30;;;;;;;;;;5015233;28;20462;-67
2023/05/13 12:25:44;;;;;;;6.50;5.90;;;;;;;;;;5015206;28;20436;-68
2023/05/13 12:28:12;;;;;;;7.83;6.43;;;;;;;;;;5014804;28;20424;-67
2023/05/13 12:30:40;;;;;;;6.90;5.60;;;;;;;;;;5014892;28;20471;-67
2023/05/13 12:33:12;;;;;;;8.17;5.33;;;;;;;;;;5014533;28;20479;-68
2023/05/13 12:35:40;;;;;;;16.13;9.33;;;;;;;;;;5014644;28;20917;-68
2023/05/13 12:38:07;;;;;;;7.40;5.93;;;;;;;;;;5014604;28;20571;-67
2023/05/13 12:40:34;;;;;;;9.23;5.30;;;;;;;;;;5014823;28;20703;-67
2023/05/13 12:43:03;;;;;;;9.47;5.60;;;;;;;;;;5014635;28;20452;-67
2023/05/13 12:45:31;;;;;;;7.87;5.63;;;;;;;;;;5014834;28;20843;-67
2023/05/13 12:47:59;;;;;;;6.03;5.40;;;;;;;;;;5014428;28;20447;-67
2023/05/13 12:50:26;;;;;;;8.40;7.17;;;;;;;;;;5013214;28;20918;-67
2023/05/13 12:52:54;;;;;;;6.30;5.70;;;;;;;;;;5014342;28;20988;-67
2023/05/13 12:55:21;;;;;;;12.00;5.40;;;;;;;;;;5014712;28;20863;-67
2023/05/13 12:57:56;;;;;;;6.20;4.40;;;;;;;;;;5014102;28;20457;-67
2023/05/13 13:00:25;;;;;;;5.00;4.60;;;;;;;;;;5014290;28;20562;-67
2023/05/13 13:02:53;;;;;;;8.17;4.80;;;;;;;;;;5014476;28;20531;-67
2023/05/13 13:05:20;;;;;;;4.87;4.47;;;;;;;;;;5014364;28;20440;-67
2023/05/13 13:07:47;;;;;;;7.93;4.70;;;;;;;;;;5014048;28;20524;-67
2023/05/13 13:10:14;;;;;;;6.17;4.50;;;;;;;;;;5013291;28;20481;-67
2023/05/13 13:12:42;;;;;;;6.23;4.90;;;;;;;;;;5013872;28;20949;-67
2023/05/13 13:15:10;;;;;;;5.83;4.50;;;;;;;;;;5014221;28;20447;-67
2023/05/13 13:17:38;;;;;;;6.90;4.50;;;;;;;;;;5013772;28;20446;-67
2023/05/13 13:20:07;;;;;;;5.93;5.20;;;;;;;;;;5013633;28;20972;-68
2023/05/13 13:22:35;;;;;;;5.57;5.03;;;;;;;;;;5014263;28;20446;-68
2023/05/13 13:25:03;;;;;;;4.90;4.40;;;;;;;;;;5014150;28;20445;-68
2023/05/13 13:27:30;;;;;;;4.30;4.00;;;;;;;;;;5013685;28;20485;-68
2023/05/13 13:29:57;;;;;;;6.57;5.30;;;;;;;;;;5013785;28;20488;-68
2023/05/13 13:32:24;;;;;;;7.10;5.00;;;;;;;;;;5013914;28;20489;-68
2023/05/13 13:34:53;;;;;;;5.30;4.80;;;;;;;;;;5013912;28;20529;-68
2023/05/13 13:37:20;;;;;;;6.03;4.83;;;;;;;;;;5013708;28;20489;-68
2023/05/13 13:39:47;;;;;;;7.40;4.80;;;;;;;;;;5013435;28;20475;-68
2023/05/13 13:42:15;;;;;;;6.17;4.70;;;;;;;;;;5013343;28;20452;-68
2023/05/13 13:44:42;;;;;;;5.10;4.70;;;;;;;;;;5013300;28;20518;-68
2023/05/13 13:47:09;;;;;;;5.70;4.77;;;;;;;;;;5013317;28;20948;-68
2023/05/13 13:49:37;;;;;;;5.00;4.60;;;;;;;;;;5013403;28;20447;-68
2023/05/13 13:52:05;;;;;;;7.90;4.87;;;;;;;;;;5013417;28;20430;-68
2023/05/13 13:54:33;;;;;;;9.73;5.37;;;;;;;;;;5013462;28;20454;-68
2023/05/13 13:57:00;;;;;;;5.77;5.20;;;;;;;;;;5013594;28;20434;-67
2023/05/13 13:59:27;;;;;;;6.70;4.83;;;;;;;;;;5013449;28;20450;-67
2023/05/13 14:01:55;;;;;;;6.63;4.43;;;;;;;;;;5013364;28;20456;-69
2023/05/13 14:04:26;;;;;;;8.43;5.00;;;;;;;;;;5013046;28;20454;-68
2023/05/13 14:06:54;;;;;;;4.40;4.00;;;;;;;;;;5013686;28;20447;-68
2023/05/13 14:09:22;;;;;;;6.53;4.37;;;;;;;;;;5012965;28;20465;-68
2023/05/13 14:11:49;;;;;;;6.90;4.63;;;;;;;;;;5013048;28;20535;-68
2023/05/13 14:14:17;;;;;;;6.13;4.53;;;;;;;;;;5013105;28;20443;-68
2023/05/13 14:16:44;;;;;;;12.73;5.73;;;;;;;;;;5013194;28;20451;-68
2023/05/13 14:19:12;;;;;;;6.00;4.90;;;;;;;;;;5013087;28;20451;-68
2023/05/13 14:21:39;;;;;;;8.20;7.37;;;;;;;;;;5015145;28;20449;-68
2023/05/13 14:24:07;;;;;;;5.90;5.30;;;;;;;;;;5016725;28;20544;-68
2023/05/13 14:26:36;;;;;;;13.03;5.70;;;;;;;;;;5017381;28;20457;-68
2023/05/13 14:29:03;;;;;;;11.43;9.93;;;;;;;;;;5017185;28;20856;-68
2023/05/13 14:31:30;;;;;;;8.53;5.70;;;;;;;;;;5016722;28;20479;-68
2023/05/13 14:33:57;;;;;;;17.60;15.90;;;;;;;;;;5016643;28;20440;-69
2023/05/13 14:36:25;;;;;;;17.93;10.83;;;;;;;;;;5016817;28;20451;-68